Time;durP1;ratioP1;P1;durP2;ratioP2;P2;SDS_P1;SDS_P2;PMS_P1;PMS_P2;Temp;Humidity;BMP_temperature;BMP_pressure;BME280_temperature;BME280_humidity;BME280_pressure;Samples;Min_cycle;Max_cycle;Signal;HPM_P1;HPM_P2
2024/01/11 00:00:03;;;;;;;21.30;9.20;;;;;;;-5.10;74.01;103138.59;5000200;28;20084;-90
2024/01/11 00:02:28;;;;;;;22.00;9.00;;;;;;;-5.09;73.78;103141.22;4996724;28;20038;-90
2024/01/11 00:04:54;;;;;;;23.10;9.47;;;;;;;-5.09;73.93;103140.34;4973398;28;20042;-90
2024/01/11 00:07:19;;;;;;;21.90;9.17;;;;;;;-5.09;74.07;103128.53;4989711;28;20023;-90
2024/01/11 00:09:44;;;;;;;22.10;9.30;;;;;;;-5.09;74.31;103133.59;4989276;28;20042;-91
2024/01/11 00:12:10;;;;;;;19.40;8.40;;;;;;;-5.07;74.04;103139.69;4978182;28;20030;-90
2024/01/11 00:14:35;;;;;;;18.93;8.40;;;;;;;-5.09;74.42;103141.22;4976279;28;20475;-90
2024/01/11 00:17:01;;;;;;;22.27;9.10;;;;;;;-5.10;73.97;103139.47;4990851;28;20029;-89
2024/01/11 00:19:27;;;;;;;20.40;9.20;;;;;;;-5.09;74.54;103138.69;4990701;28;21395;-90
2024/01/11 00:21:52;;;;;;;21.87;9.33;;;;;;;-5.07;74.79;103141.38;4990096;28;20113;-90
2024/01/11 00:24:17;;;;;;;22.43;9.13;;;;;;;-5.06;74.49;103138.06;4979889;28;20041;-89
2024/01/11 00:26:43;;;;;;;18.67;7.90;;;;;;;-5.06;74.15;103132.97;4995295;28;20058;-90
2024/01/11 00:29:08;;;;;;;18.80;8.43;;;;;;;-5.10;73.77;103136.06;4999130;28;20034;-89
2024/01/11 00:31:34;;;;;;;22.50;8.67;;;;;;;-5.12;73.63;103137.59;4991023;28;20062;-89
2024/01/11 00:33:59;;;;;;;21.33;9.40;;;;;;;-5.16;74.00;103144.09;4978343;28;20515;-89
2024/01/11 00:36:24;;;;;;;24.03;9.57;;;;;;;-5.18;73.83;103138.88;4989484;28;20479;-88
2024/01/11 00:38:50;;;;;;;23.60;9.57;;;;;;;-5.19;73.87;103132.03;4979543;28;20056;-88
2024/01/11 00:41:15;;;;;;;21.17;9.27;;;;;;;-5.18;74.08;103132.94;4989729;28;20026;-89
2024/01/11 00:43:41;;;;;;;20.63;8.97;;;;;;;-5.21;73.81;103140.31;4989860;28;20105;-89
2024/01/11 00:46:06;;;;;;;21.93;9.63;;;;;;;-5.21;74.33;103145.38;4976191;28;20034;-88
2024/01/11 00:48:32;;;;;;;20.07;8.33;;;;;;;-5.21;73.83;103153.84;4990082;28;20026;-89
2024/01/11 00:50:57;;;;;;;21.73;8.87;;;;;;;-5.22;73.91;103146.16;4973228;28;20072;-89
2024/01/11 00:53:22;;;;;;;24.13;9.73;;;;;;;-5.22;73.80;103149.59;4989241;28;20095;-89
2024/01/11 00:55:48;;;;;;;18.93;8.53;;;;;;;-5.21;73.22;103140.31;4989487;28;20077;-89
2024/01/11 00:58:13;;;;;;;23.50;10.23;;;;;;;-5.23;74.32;103136.75;4989776;28;20061;-89
2024/01/11 01:00:38;;;;;;;24.83;10.07;;;;;;;-5.23;74.72;103135.13;4989010;28;20121;-89
2024/01/11 01:03:04;;;;;;;21.07;8.97;;;;;;;-5.21;74.25;103132.69;4990375;28;20030;-88
2024/01/11 01:05:29;;;;;;;21.27;9.37;;;;;;;-5.21;73.53;103137.75;4978384;28;20029;-89
2024/01/11 01:07:54;;;;;;;20.87;9.33;;;;;;;-5.25;73.47;103135.75;4973970;28;20651;-90
2024/01/11 01:10:20;;;;;;;22.43;9.87;;;;;;;-5.26;73.47;103133.97;4994312;28;20068;-90
2024/01/11 01:12:45;;;;;;;20.53;9.53;;;;;;;-5.28;73.85;103138.94;4988074;28;20037;-90
2024/01/11 01:15:11;;;;;;;22.23;9.17;;;;;;;-5.29;73.78;103143.91;4996137;28;20109;-90
2024/01/11 01:17:37;;;;;;;24.33;11.20;;;;;;;-5.29;73.80;103149.00;4996445;28;20030;-90
2024/01/11 01:20:03;;;;;;;23.13;9.87;;;;;;;-5.32;74.42;103148.75;5000362;28;20030;-90
2024/01/11 01:22:28;;;;;;;22.23;9.27;;;;;;;-5.33;73.97;103152.94;4976789;28;20041;-90
2024/01/11 01:24:54;;;;;;;25.87;11.23;;;;;;;-5.36;74.48;103153.59;4996811;28;20037;-90
2024/01/11 01:27:19;;;;;;;22.23;9.73;;;;;;;-5.38;74.40;103155.13;4995202;28;20108;-89
2024/01/11 01:29:44;;;;;;;20.03;8.87;;;;;;;-5.40;74.54;103156.66;4975774;28;20406;-90
2024/01/11 01:32:09;;;;;;;23.27;9.53;;;;;;;-5.43;75.29;103161.47;4994353;28;20506;-90
2024/01/11 01:34:35;;;;;;;17.40;8.37;;;;;;;-5.43;74.62;103161.47;4995519;28;20664;-89
2024/01/11 01:37:00;;;;;;;20.90;10.03;;;;;;;-5.45;74.85;103165.53;4997307;28;20439;-90
2024/01/11 01:39:25;;;;;;;25.33;11.00;;;;;;;-5.48;75.40;103170.41;4995827;28;20040;-90
2024/01/11 01:41:51;;;;;;;23.53;9.33;;;;;;;-5.48;75.30;103160.25;4996427;28;20030;-89
2024/01/11 01:44:16;;;;;;;21.07;9.40;;;;;;;-5.45;75.00;103169.75;5001794;28;20108;-90
2024/01/11 01:46:41;;;;;;;18.97;8.33;;;;;;;-5.47;74.69;103174.72;4997216;28;20698;-90
2024/01/11 01:49:07;;;;;;;20.50;9.13;;;;;;;-5.50;74.24;103174.47;5001293;28;20506;-92
2024/01/11 01:51:33;;;;;;;25.77;10.17;;;;;;;-5.51;74.37;103182.84;4999425;28;20037;-90
2024/01/11 01:53:59;;;;;;;26.33;10.67;;;;;;;-5.51;74.53;103190.44;5007029;28;20085;-89
2024/01/11 01:56:25;;;;;;;26.00;10.03;;;;;;;-5.54;74.78;103192.75;5007125;28;20389;-89
2024/01/11 01:58:52;;;;;;;23.97;9.97;;;;;;;-5.57;74.81;103177.28;4998831;28;20030;-89
2024/01/11 02:01:18;;;;;;;22.53;9.53;;;;;;;-5.58;74.72;103188.19;4981123;28;20418;-89
2024/01/11 02:03:46;;;;;;;23.83;10.13;;;;;;;-5.61;75.31;103183.78;4982438;28;20415;-88
2024/01/11 02:06:13;;;;;;;23.80;10.03;;;;;;;-5.63;75.55;103173.47;4994354;28;20471;-89
2024/01/11 02:08:42;;;;;;;22.70;9.90;;;;;;;-5.61;75.54;103170.19;4993359;28;20072;-89
2024/01/11 02:11:07;;;;;;;22.60;9.53;;;;;;;-5.61;76.09;103167.66;4991159;28;20041;-89
2024/01/11 02:13:33;;;;;;;22.40;9.77;;;;;;;-5.60;75.97;103172.88;4996711;28;20025;-89
2024/01/11 02:15:58;;;;;;;19.03;8.53;;;;;;;-5.58;75.66;103167.91;4978589;28;20034;-89
2024/01/11 02:18:23;;;;;;;18.00;7.83;;;;;;;-5.59;74.17;103171.19;4992083;28;20026;-89
2024/01/11 02:20:49;;;;;;;20.57;8.53;;;;;;;-5.65;74.28;103187.72;4998222;28;20040;-90
2024/01/11 02:23:21;;;;;;;25.87;9.87;;;;;;;-5.69;74.54;103188.25;4978223;28;20033;-89
2024/01/11 02:25:46;;;;;;;24.33;10.57;;;;;;;-5.73;74.69;103187.88;4996449;28;20026;-89
2024/01/11 02:28:12;;;;;;;24.43;10.67;;;;;;;-5.80;75.19;103191.56;4975400;28;20037;-88
2024/01/11 02:30:37;;;;;;;26.10;10.60;;;;;;;-5.85;75.24;103185.25;4990795;28;20041;-90
2024/01/11 02:33:04;;;;;;;20.60;9.60;;;;;;;-5.86;75.09;103186.00;4979318;28;20061;-89
2024/01/11 02:35:30;;;;;;;26.00;10.43;;;;;;;-5.90;74.64;103177.28;4979451;28;20030;-89
2024/01/11 02:37:57;;;;;;;25.33;10.40;;;;;;;-5.91;74.71;103180.59;4997506;28;20029;-89
2024/01/11 02:40:22;;;;;;;27.93;10.70;;;;;;;-5.91;75.36;103179.69;4995628;28;20030;-91
2024/01/11 02:42:48;;;;;;;21.30;8.83;;;;;;;-5.91;75.67;103182.22;4983988;28;20026;-91
2024/01/11 02:45:13;;;;;;;25.93;10.00;;;;;;;-5.92;75.19;103186.41;4998309;28;20030;-90
2024/01/11 02:47:39;;;;;;;23.37;9.50;;;;;;;-5.97;75.32;103180.97;4981774;28;20022;-91
2024/01/11 02:50:07;;;;;;;27.07;10.57;;;;;;;-5.98;75.84;103176.66;5000688;28;20040;-91
2024/01/11 02:52:32;;;;;;;25.30;10.13;;;;;;;-6.01;75.64;103181.53;4982147;28;20035;-91
2024/01/11 02:54:58;;;;;;;24.77;9.87;;;;;;;-6.01;75.40;103184.06;4999671;28;20044;-91
2024/01/11 02:57:23;;;;;;;24.07;9.37;;;;;;;-6.05;75.86;103187.09;4986996;28;20089;-90
2024/01/11 02:59:49;;;;;;;25.13;10.17;;;;;;;-6.06;76.04;103187.88;4984405;28;20057;-91
2024/01/11 03:02:15;;;;;;;21.33;9.13;;;;;;;-6.08;75.72;103175.84;4994866;28;20034;-90
2024/01/11 03:04:40;;;;;;;27.27;10.30;;;;;;;-6.08;76.04;103176.72;4975464;28;20042;-89
2024/01/11 03:07:05;;;;;;;19.17;8.47;;;;;;;-6.09;75.92;103180.00;4987102;28;20322;-90
2024/01/11 03:09:31;;;;;;;25.77;10.73;;;;;;;-6.10;76.37;103180.78;4987740;28;20038;-90
2024/01/11 03:11:56;;;;;;;23.07;9.73;;;;;;;-6.10;76.12;103185.84;4976182;28;20026;-89
2024/01/11 03:14:21;;;;;;;22.27;9.90;;;;;;;-6.12;76.22;103179.75;4980508;28;20034;-90
2024/01/11 03:16:47;;;;;;;22.17;9.50;;;;;;;-6.11;75.72;103184.06;4978536;28;20027;-90
2024/01/11 03:19:12;;;;;;;23.77;9.37;;;;;;;-6.12;75.04;103187.38;4991672;28;20034;-87
2024/01/11 03:21:44;;;;;;;28.03;11.40;;;;;;;-6.15;75.65;103182.94;4990643;28;20045;-89
2024/01/11 03:24:09;;;;;;;26.80;11.37;;;;;;;-6.19;76.00;103178.38;4982652;28;20088;-89
2024/01/11 03:26:35;;;;;;;24.67;10.77;;;;;;;-6.19;76.24;103187.66;4975801;28;20034;-89
2024/01/11 03:29:00;;;;;;;26.33;11.03;;;;;;;-6.21;76.89;103189.16;4991416;28;20058;-89
2024/01/11 03:31:25;;;;;;;26.40;10.47;;;;;;;-6.22;76.48;103177.25;4990447;28;20082;-89
2024/01/11 03:33:51;;;;;;;19.97;8.60;;;;;;;-6.20;76.16;103179.13;4991385;28;20065;-89
2024/01/11 03:36:16;;;;;;;21.80;9.40;;;;;;;-6.23;75.66;103176.34;4991281;28;20026;-89
2024/01/11 03:38:41;;;;;;;23.40;10.07;;;;;;;-6.23;75.88;103178.03;4991568;28;20030;-89
2024/01/11 03:41:09;;;;;;;23.93;10.40;;;;;;;-6.26;76.21;103177.00;4990778;28;20031;-89
2024/01/11 03:43:35;;;;;;;24.00;9.33;;;;;;;-6.29;75.90;103181.81;4991777;28;20116;-89
2024/01/11 03:46:01;;;;;;;24.83;10.70;;;;;;;-6.32;76.16;103179.03;4990993;28;20034;-89
2024/01/11 03:48:26;;;;;;;23.07;9.77;;;;;;;-6.31;75.86;103178.25;4991626;28;20450;-89
2024/01/11 03:50:51;;;;;;;25.60;10.47;;;;;;;-6.32;75.74;103178.16;4990821;28;20373;-89
2024/01/11 03:53:17;;;;;;;30.37;11.83;;;;;;;-6.35;76.33;103181.34;4978969;28;20030;-89
2024/01/11 03:55:42;;;;;;;28.43;11.13;;;;;;;-6.38;76.38;103180.19;4991062;28;20522;-88
2024/01/11 03:58:08;;;;;;;24.70;10.27;;;;;;;-6.40;77.24;103175.88;4990567;28;20498;-90
2024/01/11 04:00:33;;;;;;;25.73;10.73;;;;;;;-6.40;77.04;103177.53;4990670;28;20415;-88
2024/01/11 04:02:58;;;;;;;21.87;9.20;;;;;;;-6.42;75.79;103179.97;4989216;28;20026;-89
2024/01/11 04:05:24;;;;;;;22.93;9.70;;;;;;;-6.45;75.92;103188.94;4990935;28;20096;-89
2024/01/11 04:07:49;;;;;;;23.70;9.63;;;;;;;-6.47;75.92;103198.03;4990436;28;20131;-89
2024/01/11 04:10:17;;;;;;;22.23;9.80;;;;;;;-6.52;76.63;103206.94;4991044;28;20045;-90
2024/01/11 04:12:43;;;;;;;24.00;10.37;;;;;;;-6.59;77.15;103214.00;4990239;28;20109;-89
2024/01/11 04:15:08;;;;;;;26.77;10.63;;;;;;;-6.62;76.63;103210.34;4990367;28;20105;-89
2024/01/11 04:17:33;;;;;;;25.07;10.37;;;;;;;-6.66;77.63;103205.78;4990604;28;20596;-89
2024/01/11 04:19:59;;;;;;;22.83;9.77;;;;;;;-6.64;76.98;103209.31;4990398;28;20472;-89
2024/01/11 04:22:24;;;;;;;23.47;9.07;;;;;;;-6.65;76.63;103202.47;4989374;28;20499;-89
2024/01/11 04:24:49;;;;;;;25.60;10.20;;;;;;;-6.64;77.57;103207.66;4977334;28;20531;-89
2024/01/11 04:27:15;;;;;;;23.07;9.80;;;;;;;-6.68;77.27;103209.81;4990645;28;20770;-89
2024/01/11 04:29:40;;;;;;;19.20;7.80;;;;;;;-6.69;77.33;103218.16;4989824;28;20467;-89
2024/01/11 04:32:05;;;;;;;19.57;9.13;;;;;;;-6.67;77.34;103222.63;4989368;28;20388;-89
2024/01/11 04:34:31;;;;;;;24.30;10.40;;;;;;;-6.71;77.79;103221.47;4990149;28;20464;-89
2024/01/11 04:36:56;;;;;;;22.03;9.17;;;;;;;-6.71;77.31;103221.47;4978398;28;20030;-89
2024/01/11 04:39:22;;;;;;;21.10;8.80;;;;;;;-6.72;77.91;103209.56;4973641;28;20030;-90
2024/01/11 04:41:47;;;;;;;23.07;8.80;;;;;;;-6.71;78.09;103207.94;5001861;28;20022;-89
2024/01/11 04:44:13;;;;;;;19.67;8.27;;;;;;;-6.67;77.55;103209.06;5007771;28;20086;-89
2024/01/11 04:46:38;;;;;;;17.53;7.53;;;;;;;-6.68;77.06;103215.78;5015633;28;20030;-89
2024/01/11 04:49:03;;;;;;;18.67;8.00;;;;;;;-6.67;77.13;103225.16;5015605;28;20073;-89
2024/01/11 04:51:29;;;;;;;24.07;9.23;;;;;;;-6.68;77.84;103225.00;5005768;28;20026;-89
2024/01/11 04:53:54;;;;;;;18.17;7.77;;;;;;;-6.65;77.50;103231.19;4991484;28;20054;-89
2024/01/11 04:56:19;;;;;;;19.30;7.87;;;;;;;-6.67;77.24;103222.63;4991829;28;20022;-89
2024/01/11 04:58:45;;;;;;;19.03;8.10;;;;;;;-6.66;77.55;103236.16;4989809;28;20037;-89
2024/01/11 05:01:17;;;;;;;18.50;8.27;;;;;;;-6.68;77.99;103235.13;4979851;28;20053;-89
2024/01/11 05:03:44;;;;;;;21.43;7.60;;;;;;;-6.71;77.05;103241.72;4979474;28;20526;-89
2024/01/11 05:06:20;;;;;;;19.93;8.57;;;;;;;-6.71;77.59;103230.72;4997372;28;20472;-89
2024/01/11 05:08:46;;;;;;;20.43;8.73;;;;;;;-6.72;77.69;103239.94;4995167;28;20022;-89
2024/01/11 05:11:19;;;;;;;20.10;8.27;;;;;;;-6.74;77.61;103240.56;4978304;28;20034;-89
2024/01/11 05:13:48;;;;;;;21.83;8.60;;;;;;;-6.77;77.68;103242.84;4979754;28;20058;-89
2024/01/11 05:16:40;;;;;;;18.17;7.50;;;;;;;-6.78;77.83;103246.13;4990714;28;20022;-88
2024/01/11 05:19:05;;;;;;;23.83;9.00;;;;;;;-6.80;78.21;103240.94;4995524;28;21615;-89
2024/01/11 05:21:31;;;;;;;20.00;8.97;;;;;;;-6.81;77.56;103245.88;4993342;28;20105;-89
2024/01/11 05:23:56;;;;;;;20.40;8.07;;;;;;;-6.83;77.06;103242.34;4996893;28;20045;-89
2024/01/11 05:26:21;;;;;;;21.23;8.53;;;;;;;-6.87;77.82;103247.13;5001012;28;20029;-88
2024/01/11 05:28:47;;;;;;;21.27;9.07;;;;;;;-6.90;78.14;103251.94;4993116;28;20088;-89
2024/01/11 05:31:17;;;;;;;20.50;8.73;;;;;;;-6.92;78.36;103253.44;4993779;28;20029;-90
2024/01/11 05:33:43;;;;;;;22.77;9.70;;;;;;;-6.93;79.02;103259.25;4992952;28;20026;-89
2024/01/11 05:36:08;;;;;;;22.00;8.70;;;;;;;-6.94;78.31;103259.16;4998832;28;20101;-89
2024/01/11 05:38:34;;;;;;;22.43;9.07;;;;;;;-6.94;79.01;103265.06;4976804;28;20033;-90
2024/01/11 05:41:00;;;;;;;21.23;8.80;;;;;;;-6.93;78.21;103261.78;4992428;28;20038;-89
2024/01/11 05:43:25;;;;;;;20.90;8.63;;;;;;;-6.95;78.82;103255.72;4976917;28;20446;-88
2024/01/11 05:45:51;;;;;;;23.77;9.30;;;;;;;-6.92;80.05;103248.38;4990119;28;20030;-89
2024/01/11 05:48:17;;;;;;;19.97;8.63;;;;;;;-6.89;79.55;103246.13;4991424;28;20034;-88
2024/01/11 05:50:43;;;;;;;15.37;7.43;;;;;;;-6.86;79.42;103266.63;4976789;28;20026;-89
2024/01/11 05:53:08;;;;;;;17.50;8.10;;;;;;;-6.84;79.08;103263.34;4975321;28;20740;-88
2024/01/11 05:55:34;;;;;;;20.13;8.00;;;;;;;-6.88;78.68;103263.09;4990607;28;20041;-89
2024/01/11 05:58:00;;;;;;;17.23;7.27;;;;;;;-6.88;79.20;103267.25;4995417;28;20025;-88
2024/01/11 06:00:25;;;;;;;17.77;8.10;;;;;;;-6.88;78.63;103280.78;4993011;28;20026;-88
2024/01/11 06:02:50;;;;;;;19.07;8.37;;;;;;;-6.91;79.20;103272.94;4991172;28;20026;-89
2024/01/11 06:05:16;;;;;;;21.03;7.83;;;;;;;-6.92;78.53;103288.88;4993043;28;20053;-89
2024/01/11 06:07:41;;;;;;;17.60;8.40;;;;;;;-6.92;79.11;103291.41;4974037;28;20360;-89
2024/01/11 06:10:08;;;;;;;24.43;8.33;;;;;;;-6.95;79.01;103286.06;4991814;28;20398;-89
2024/01/11 06:12:34;;;;;;;21.33;8.40;;;;;;;-6.96;79.38;103269.13;4975230;28;20365;-89
2024/01/11 06:15:01;;;;;;;17.67;8.43;;;;;;;-6.93;80.27;103268.50;4991272;28;20448;-89
2024/01/11 06:17:26;;;;;;;16.10;7.57;;;;;;;-6.90;79.46;103264.59;4991898;28;20029;-89
2024/01/11 06:19:51;;;;;;;19.13;8.67;;;;;;;-6.88;79.45;103278.25;4992085;28;20028;-88
2024/01/11 06:22:17;;;;;;;18.47;8.23;;;;;;;-6.87;79.29;103276.59;4992776;28;20104;-89
2024/01/11 06:24:43;;;;;;;17.13;7.93;;;;;;;-6.89;78.89;103279.03;4992147;28;20026;-89
2024/01/11 06:27:08;;;;;;;20.50;8.53;;;;;;;-6.93;79.30;103276.97;4992429;28;20081;-89
2024/01/11 06:29:34;;;;;;;18.90;7.83;;;;;;;-6.92;79.33;103268.63;4975544;28;20060;-89
2024/01/11 06:31:59;;;;;;;19.27;8.47;;;;;;;-6.92;80.00;103265.22;4988808;28;20031;-88
2024/01/11 06:34:24;;;;;;;16.83;6.93;;;;;;;-6.91;79.64;103280.53;4995206;28;20030;-89
2024/01/11 06:36:50;;;;;;;22.13;8.53;;;;;;;-6.94;79.57;103276.84;4991820;28;20164;-89
2024/01/11 06:39:15;;;;;;;18.93;8.30;;;;;;;-6.94;79.55;103287.84;5011449;28;20415;-92
2024/01/11 06:41:40;;;;;;;23.77;8.90;;;;;;;-6.98;79.65;103285.81;4991302;28;20027;-88
2024/01/11 06:44:06;;;;;;;20.17;8.60;;;;;;;-6.99;79.93;103288.22;5003100;28;20033;-88
2024/01/11 06:46:31;;;;;;;20.83;8.57;;;;;;;-6.97;80.20;103294.31;4997747;28;20066;-88
2024/01/11 06:48:56;;;;;;;17.90;7.60;;;;;;;-6.97;79.35;103307.81;4980064;28;20026;-88
2024/01/11 06:51:23;;;;;;;22.03;8.43;;;;;;;-7.01;79.98;103303.28;4994786;28;20034;-88
2024/01/11 06:53:49;;;;;;;19.53;8.27;;;;;;;-7.03;79.70;103295.53;5002016;28;20050;-88
2024/01/11 06:56:19;;;;;;;20.00;8.20;;;;;;;-7.02;80.85;103304.03;4981267;28;20100;-89
2024/01/11 06:58:45;;;;;;;19.67;8.67;;;;;;;-7.02;79.96;103304.03;4994262;28;20033;-88
2024/01/11 07:01:11;;;;;;;17.07;7.67;;;;;;;-7.02;79.20;103309.09;4993406;28;20026;-88
2024/01/11 07:03:37;;;;;;;14.70;6.47;;;;;;;-7.05;78.96;103313.88;4976870;28;20069;-88
2024/01/11 07:06:03;;;;;;;21.77;8.27;;;;;;;-7.08;79.73;103324.59;4982367;28;20026;-89
2024/01/11 07:08:29;;;;;;;18.57;7.70;;;;;;;-7.11;80.31;103343.69;4981773;28;20033;-88
2024/01/11 07:10:54;;;;;;;18.30;7.67;;;;;;;-7.10;79.02;103335.34;4976123;28;20113;-88
2024/01/11 07:13:20;;;;;;;20.47;8.90;;;;;;;-7.14;79.71;103339.28;4961535;28;20110;-88
2024/01/11 07:15:46;;;;;;;26.20;10.00;;;;;;;-7.17;79.81;103332.28;4957341;28;20035;-88
2024/01/11 07:18:11;;;;;;;21.60;8.90;;;;;;;-7.18;80.08;103322.94;4974316;28;20451;-88
2024/01/11 07:20:36;;;;;;;19.30;8.23;;;;;;;-7.16;80.92;103326.47;4976871;28;20034;-88
2024/01/11 07:23:02;;;;;;;17.00;7.87;;;;;;;-7.19;80.56;103341.41;4979827;28;20034;-88
2024/01/11 07:25:27;;;;;;;27.60;10.07;;;;;;;-7.23;80.89;103334.31;4976296;28;20034;-88
2024/01/11 07:27:53;;;;;;;19.90;8.80;;;;;;;-7.27;81.21;103332.25;4958769;28;20066;-89
2024/01/11 07:30:18;;;;;;;24.13;9.60;;;;;;;-7.28;80.89;103333.00;4978100;28;20081;-88
2024/01/11 07:32:44;;;;;;;20.07;8.27;;;;;;;-7.29;81.75;103337.94;4976287;28;20121;-88
2024/01/11 07:35:10;;;;;;;19.17;8.40;;;;;;;-7.28;81.66;103335.53;4973985;28;20054;-88
2024/01/11 07:37:36;;;;;;;19.23;8.00;;;;;;;-7.26;81.36;103333.16;4957374;28;20034;-89
2024/01/11 07:40:03;;;;;;;19.87;9.30;;;;;;;-7.26;82.42;103339.09;4959059;28;20037;-88
2024/01/11 07:42:29;;;;;;;17.73;7.60;;;;;;;-7.25;80.91;103338.34;4976020;28;20114;-88
2024/01/11 07:44:54;;;;;;;22.33;8.00;;;;;;;-7.24;80.09;103342.63;4987198;28;20102;-88
2024/01/11 07:47:20;;;;;;;18.40;7.40;;;;;;;-7.26;80.29;103341.63;4985269;28;20026;-88
2024/01/11 07:49:45;;;;;;;18.53;8.07;;;;;;;-7.26;81.11;103348.31;4977334;28;20086;-89
2024/01/11 07:52:11;;;;;;;23.83;9.00;;;;;;;-7.24;80.15;103345.16;4961578;28;20023;-89
2024/01/11 07:54:36;;;;;;;19.13;8.13;;;;;;;-7.23;81.40;103338.44;4979785;28;20030;-89
2024/01/11 07:57:02;;;;;;;18.07;8.50;;;;;;;-7.21;81.26;103325.22;4980965;28;20511;-88
2024/01/11 07:59:32;;;;;;;22.73;8.80;;;;;;;-7.18;81.61;103317.88;4974056;28;20030;-89
2024/01/11 08:01:57;;;;;;;20.97;9.10;;;;;;;-7.18;82.16;103307.78;4970653;28;20049;-88
2024/01/11 08:04:23;;;;;;;18.10;8.47;;;;;;;-7.20;82.38;103305.84;4972138;28;20035;-88
2024/01/11 08:06:48;;;;;;;19.23;8.60;;;;;;;-7.22;81.86;103305.72;4992146;28;20109;-89
2024/01/11 08:09:13;;;;;;;20.43;8.70;;;;;;;-7.20;82.57;103313.44;4996127;28;20084;-88
2024/01/11 08:11:41;;;;;;;15.53;6.33;;;;;;;-7.19;82.01;103311.06;4989875;28;20030;-89
2024/01/11 08:14:06;;;;;;;16.80;7.37;;;;;;;-7.17;82.15;103314.56;4975217;28;20030;-86
2024/01/11 08:16:31;;;;;;;18.40;7.50;;;;;;;-7.13;82.46;103312.31;4990556;28;20092;-88
2024/01/11 08:18:57;;;;;;;16.77;7.90;;;;;;;-7.11;81.79;103318.41;4987767;28;20029;-89
2024/01/11 08:21:22;;;;;;;17.37;6.87;;;;;;;-7.08;82.51;103313.63;4990959;28;20069;-89
2024/01/11 08:23:48;;;;;;;14.77;6.57;;;;;;;-7.03;81.51;103317.44;4990494;28;20122;-88
2024/01/11 08:26:21;;;;;;;16.83;7.90;;;;;;;-6.99;81.43;103324.50;4990224;28;20022;-89
2024/01/11 08:28:46;;;;;;;16.10;7.20;;;;;;;-6.96;81.36;103329.84;4990329;28;20030;-89
2024/01/11 08:31:12;;;;;;;18.17;8.03;;;;;;;-6.94;81.69;103323.28;4975277;28;20022;-88
2024/01/11 08:33:37;;;;;;;19.43;7.93;;;;;;;-6.90;82.44;103315.22;4975681;28;20113;-88
2024/01/11 08:36:04;;;;;;;18.23;7.77;;;;;;;-6.86;82.29;103316.34;4978200;28;20034;-88
2024/01/11 08:38:30;;;;;;;17.33;7.17;;;;;;;-6.83;82.11;103305.63;4996501;28;20030;-88
2024/01/11 08:40:55;;;;;;;16.73;7.10;;;;;;;-6.78;82.41;103314.47;4992726;28;20369;-89
2024/01/11 08:43:20;;;;;;;17.10;8.00;;;;;;;-6.77;82.31;103314.63;4992083;28;20385;-88
2024/01/11 08:45:46;;;;;;;18.60;7.97;;;;;;;-6.72;82.12;103322.59;4979813;28;20034;-88
2024/01/11 08:48:13;;;;;;;16.43;6.73;;;;;;;-6.69;81.90;103330.47;4976833;28;20026;-89
2024/01/11 08:50:39;;;;;;;13.93;6.83;;;;;;;-6.64;81.81;103333.38;4992574;28;20096;-89
2024/01/11 08:53:04;;;;;;;19.10;8.03;;;;;;;-6.60;81.89;103332.88;4973202;28;20034;-89
2024/01/11 08:55:29;;;;;;;16.10;6.60;;;;;;;-6.57;82.12;103331.50;4971875;28;20034;-90
2024/01/11 08:57:55;;;;;;;16.80;7.43;;;;;;;-6.52;82.15;103331.00;4992258;28;20021;-88
2024/01/11 09:00:20;;;;;;;17.70;7.60;;;;;;;-6.50;82.01;103330.38;4990466;28;20030;-88
2024/01/11 09:02:46;;;;;;;20.63;9.17;;;;;;;-6.47;82.59;103344.91;4975484;28;20030;-89
2024/01/11 09:05:14;;;;;;;17.83;8.13;;;;;;;-6.44;81.71;103338.50;5006758;28;20138;-89
2024/01/11 09:07:39;;;;;;;21.20;8.93;;;;;;;-6.41;82.72;103327.72;5005520;28;20521;-89
2024/01/11 09:10:05;;;;;;;18.50;7.90;;;;;;;-6.39;82.19;103336.34;5003287;28;20057;-88
2024/01/11 09:12:31;;;;;;;18.67;8.17;;;;;;;-6.33;82.69;103341.94;4995331;28;20492;-89
2024/01/11 09:14:56;;;;;;;17.40;8.17;;;;;;;-6.29;82.07;103354.06;4999269;28;20037;-89
2024/01/11 09:17:21;;;;;;;22.53;10.07;;;;;;;-6.27;82.63;103344.97;4984152;28;20018;-87
2024/01/11 09:19:46;;;;;;;19.53;8.60;;;;;;;-6.20;83.28;103360.69;4997123;28;20068;-85
2024/01/11 09:22:12;;;;;;;19.37;8.93;;;;;;;-6.15;82.67;103359.44;5000851;28;20109;-88
2024/01/11 09:24:37;;;;;;;21.10;9.20;;;;;;;-6.12;82.59;103367.28;4985068;28;20391;-89
2024/01/11 09:27:04;;;;;;;17.83;8.00;;;;;;;-6.09;82.90;103375.13;5020669;28;20054;-88
2024/01/11 09:29:29;;;;;;;20.20;9.10;;;;;;;-6.06;83.39;103372.88;4989688;28;20029;-89
2024/01/11 09:31:55;;;;;;;20.10;8.50;;;;;;;-5.99;82.99;103376.75;5003942;28;20382;-89
2024/01/11 09:34:20;;;;;;;17.50;8.17;;;;;;;-5.96;83.01;103370.28;5002315;28;20525;-91
2024/01/11 09:36:45;;;;;;;18.83;8.00;;;;;;;-5.89;83.32;103381.81;4983772;28;20396;-89
2024/01/11 09:39:13;;;;;;;17.43;8.23;;;;;;;-5.85;83.12;103380.44;4999442;28;20048;-91
2024/01/11 09:41:43;;;;;;;18.57;8.10;;;;;;;-5.81;82.91;103390.97;5002932;28;20497;-88
2024/01/11 09:44:09;;;;;;;18.37;8.87;;;;;;;-5.79;83.76;103393.63;4984211;28;20030;-87
2024/01/11 09:46:34;;;;;;;20.07;8.43;;;;;;;-5.74;83.49;103392.34;5001229;28;20018;-88
2024/01/11 09:49:04;;;;;;;18.70;8.93;;;;;;;-5.68;84.53;103387.81;4999289;28;20104;-88
2024/01/11 09:51:29;;;;;;;17.30;8.60;;;;;;;-5.61;84.21;103395.88;5001049;28;20073;-87
2024/01/11 09:53:58;;;;;;;21.13;8.73;;;;;;;-5.57;84.18;103387.78;5001741;28;20057;-89
2024/01/11 09:56:24;;;;;;;22.13;9.80;;;;;;;-5.50;84.26;103387.53;4997916;28;20034;-89
2024/01/11 09:58:50;;;;;;;22.10;10.80;;;;;;;-5.46;84.16;103379.38;5000310;28;20048;-88
2024/01/11 10:01:16;;;;;;;24.03;9.57;;;;;;;-5.38;84.19;103387.66;4997760;28;20038;-88
2024/01/11 10:03:42;;;;;;;22.73;11.27;;;;;;;-5.32;84.93;103392.31;5004107;28;20140;-90
2024/01/11 10:06:09;;;;;;;21.73;9.57;;;;;;;-5.25;85.59;103394.56;5002002;28;20475;-88
2024/01/11 10:08:35;;;;;;;19.90;9.77;;;;;;;-5.20;85.07;103400.91;4986080;28;20121;-89
2024/01/11 10:11:01;;;;;;;18.07;8.60;;;;;;;-5.15;84.78;103404.72;5000285;28;20084;-88
2024/01/11 10:13:30;;;;;;;19.30;8.23;;;;;;;-5.10;84.31;103398.34;5000856;28;20034;-88
2024/01/11 10:16:07;;;;;;;22.33;9.77;;;;;;;-5.06;84.67;103392.75;5001020;28;20030;-88
2024/01/11 10:18:32;;;;;;;24.73;11.33;;;;;;;-4.98;84.16;103412.81;5005120;28;20520;-89
2024/01/11 10:20:57;;;;;;;21.57;10.27;;;;;;;-4.93;83.91;103425.09;5004041;28;20121;-88
2024/01/11 10:23:23;;;;;;;20.90;9.17;;;;;;;-4.88;83.90;103423.81;5004396;28;20030;-88
2024/01/11 10:25:48;;;;;;;26.83;11.23;;;;;;;-4.82;83.71;103425.06;5004649;28;20034;-88
2024/01/11 10:28:14;;;;;;;27.70;12.50;;;;;;;-4.79;84.37;103417.69;4989445;28;20383;-88
2024/01/11 10:30:40;;;;;;;19.67;9.10;;;;;;;-4.73;84.24;103421.59;5004395;28;20030;-88
2024/01/11 10:33:07;;;;;;;24.47;10.90;;;;;;;-4.66;83.49;103417.00;5009340;28;20022;-89
2024/01/11 10:35:32;;;;;;;29.67;12.77;;;;;;;-4.62;83.75;103421.56;5001051;28;21682;-89
2024/01/11 10:38:00;;;;;;;26.00;11.50;;;;;;;-4.56;83.36;103416.94;5007288;28;20032;-88
2024/01/11 10:40:25;;;;;;;25.07;10.60;;;;;;;-4.52;83.32;103408.81;4983117;28;20038;-89
2024/01/11 10:42:52;;;;;;;22.63;10.67;;;;;;;-4.48;83.13;103407.38;5011174;28;20022;-89
2024/01/11 10:45:19;;;;;;;22.77;10.70;;;;;;;-4.43;83.23;103414.59;5004814;28;20041;-89
2024/01/11 10:47:53;;;;;;;22.90;10.13;;;;;;;-4.37;83.57;103410.75;4988254;28;20550;-89
2024/01/11 10:50:19;;;;;;;25.90;11.97;;;;;;;-4.32;83.00;103406.94;5002269;28;20488;-88
2024/01/11 10:53:17;;;;;;;28.30;11.90;;;;;;;-4.27;82.43;103391.25;4987306;28;20121;-89
2024/01/11 10:55:44;;;;;;;27.43;11.83;;;;;;;-4.20;82.54;103386.66;5007045;28;20030;-89
2024/01/11 10:58:10;;;;;;;25.67;11.60;;;;;;;-4.16;82.88;103394.63;4988909;28;20018;-90
2024/01/11 11:00:36;;;;;;;25.53;11.77;;;;;;;-4.09;82.02;103405.25;5006637;28;20097;-90
2024/01/11 11:03:03;;;;;;;24.00;11.07;;;;;;;-4.00;82.80;103400.88;5000720;28;20037;-89
2024/01/11 11:05:30;;;;;;;23.27;10.43;;;;;;;-3.96;81.62;103393.59;4959568;28;20026;-89
2024/01/11 11:07:56;;;;;;;27.73;11.87;;;;;;;-3.90;81.79;103398.25;4964208;28;20097;-91